Nebo, Kentucky
Current Conditions -  °F | °C
As of 5:35 AM on Thursday 27 Nov 2014 (Local Time) from K2I0 Reporting Station
Overcast Overcast  
Wind Chill: 27°   Ceiling: 1100
Heat Index: 34°   Visibility: 7mi
Dew Point: 33°   Wind: 9mph
Humidity: 96%   Direction: 320°NW
Pressure: 30.3"   Gusts: NA
Location:  37.38°N, 87.64°W
Report Text: K2I0 271135Z AUTO 32008KT 7SM BKN011 OVC033 01/01 A3030 RMK AO2 T00110005
Loading
Personal Weather Stations






























Interactive Weather Map New forecast layout! Learn more

10-Day Weather Forecast

Advertisements
Track Severe Weather on mobile